KGED

Delaware Coastal Airport

Georgetown, Delaware, USA
METAR KGED 220954Z AUTO 11003KT 10SM FEW070 16/14 A3013 RMK AO2 SLP202 T01610144
Observed Flight Rules
May-22 @ 09:54 UTC (20 minutes ago) Visual Flight Rules
Wind Visibility Clouds
110° at 3 knots 10 miles
  • Few at 7,000' AGL
Temperatures Readings
Current 16°C / 61°F
Dewpoint 14°C / 57°F
Humidity 88%
Altimeter 30.13" Hg
Pressure 1020.2 hPa
Elevation 19
METAR KGED 220954Z AUTO 11003KT 10SM FEW070 16/14 A3013 RMK AO2 SLP202 T01610144
Observed Flight Rules
May-22 @ 09:54 UTC
(20 minutes ago)
VFR
Wind Visibility
110° at 3 knots 10 miles
Clouds
  • Few at 7,000' AGL
Temperature Dewpoint
16°C / 61°F 14°C / 57°F
Humidity Altimeter Pressure
88% 30.13" Hg 1020.2 hPa